Terminal Aerodrome Forecast
Issued by NWS Jackson, MS

Home | Current Version | Previous Version | Text Only | Print | Product List | Glossary On
Versions: 1 2 3 4 5 6 7 8 9 10 11 12 13 14 15
000
FTUS44 KMEG 220203 AAA
TAFTUP
TAF AMD
KTUP 220203Z 2202/2224 10004KT P6SM FEW008 BKN025
     FM220400 19006KT P6SM OVC007
     FM221500 19012KT P6SM VCSH BKN009 OVC025
     FM222000 18009KT 5SM SHRA VCTS BKN005 OVC010CB=

USA.gov is the U.S. government's official web portal to all federal, state and local government web resources and services.